sensor_id;sensor_type;location;lat;lon;timestamp;temperature;humidity
64855;DHT22;51321;50.428;8.378;2022-09-24T00:02:09;9.70;99.90
64855;DHT22;51321;50.428;8.378;2022-09-24T00:04:31;9.70;99.90
64855;DHT22;51321;50.428;8.378;2022-09-24T00:06:55;9.60;99.90
64855;DHT22;51321;50.428;8.378;2022-09-24T00:09:19;9.60;99.90
64855;DHT22;51321;50.428;8.378;2022-09-24T00:11:42;9.50;99.90
64855;DHT22;51321;50.428;8.378;2022-09-24T00:14:05;9.50;99.90
64855;DHT22;51321;50.428;8.378;2022-09-24T00:16:29;9.50;99.90
64855;DHT22;51321;50.428;8.378;2022-09-24T00:18:53;9.50;99.90
64855;DHT22;51321;50.428;8.378;2022-09-24T00:21:17;9.50;99.90
64855;DHT22;51321;50.428;8.378;2022-09-24T00:23:41;9.50;99.90
64855;DHT22;51321;50.428;8.378;2022-09-24T00:26:03;9.50;99.90
64855;DHT22;51321;50.428;8.378;2022-09-24T00:28:44;9.50;99.90
64855;DHT22;51321;50.428;8.378;2022-09-24T00:31:07;9.40;99.90
64855;DHT22;51321;50.428;8.378;2022-09-24T00:33:29;9.30;99.90
64855;DHT22;51321;50.428;8.378;2022-09-24T00:35:57;9.40;99.90
64855;DHT22;51321;50.428;8.378;2022-09-24T00:38:21;9.50;99.90
64855;DHT22;51321;50.428;8.378;2022-09-24T00:40:45;9.60;99.90
64855;DHT22;51321;50.428;8.378;2022-09-24T00:43:22;9.50;99.90
64855;DHT22;51321;50.428;8.378;2022-09-24T00:45:44;9.50;99.90
64855;DHT22;51321;50.428;8.378;2022-09-24T00:48:07;9.50;99.90
64855;DHT22;51321;50.428;8.378;2022-09-24T00:50:29;9.50;99.90
64855;DHT22;51321;50.428;8.378;2022-09-24T00:52:55;9.50;99.90
64855;DHT22;51321;50.428;8.378;2022-09-24T00:55:19;9.50;99.90
64855;DHT22;51321;50.428;8.378;2022-09-24T00:57:46;9.50;99.90
64855;DHT22;51321;50.428;8.378;2022-09-24T01:00:10;9.50;99.90
64855;DHT22;51321;50.428;8.378;2022-09-24T01:02:34;9.40;99.90
64855;DHT22;51321;50.428;8.378;2022-09-24T01:04:57;9.40;99.90
64855;DHT22;51321;50.428;8.378;2022-09-24T01:07:19;9.40;99.90
64855;DHT22;51321;50.428;8.378;2022-09-24T01:09:42;9.50;99.90
64855;DHT22;51321;50.428;8.378;2022-09-24T01:12:10;9.60;99.90
64855;DHT22;51321;50.428;8.378;2022-09-24T01:14:52;9.60;99.90
64855;DHT22;51321;50.428;8.378;2022-09-24T01:17:25;9.50;99.90
64855;DHT22;51321;50.428;8.378;2022-09-24T01:20:37;9.50;99.90
64855;DHT22;51321;50.428;8.378;2022-09-24T01:23:12;9.50;99.90
64855;DHT22;51321;50.428;8.378;2022-09-24T01:25:53;9.50;99.90
64855;DHT22;51321;50.428;8.378;2022-09-24T01:28:32;9.40;99.90
64855;DHT22;51321;50.428;8.378;2022-09-24T01:31:05;9.40;99.90
64855;DHT22;51321;50.428;8.378;2022-09-24T01:33:31;9.30;99.90
64855;DHT22;51321;50.428;8.378;2022-09-24T01:35:57;9.30;99.90
64855;DHT22;51321;50.428;8.378;2022-09-24T01:38:24;9.30;99.90
64855;DHT22;51321;50.428;8.378;2022-09-24T01:40:48;9.10;99.90
64855;DHT22;51321;50.428;8.378;2022-09-24T01:43:12;9.00;99.90
64855;DHT22;51321;50.428;8.378;2022-09-24T01:45:37;8.90;99.90
64855;DHT22;51321;50.428;8.378;2022-09-24T01:48:03;8.90;99.90
64855;DHT22;51321;50.428;8.378;2022-09-24T01:50:30;8.70;99.90
64855;DHT22;51321;50.428;8.378;2022-09-24T01:53:00;8.70;99.90
64855;DHT22;51321;50.428;8.378;2022-09-24T01:55:29;8.80;99.90
64855;DHT22;51321;50.428;8.378;2022-09-24T01:57:56;8.90;99.90
64855;DHT22;51321;50.428;8.378;2022-09-24T02:00:21;8.90;99.90
64855;DHT22;51321;50.428;8.378;2022-09-24T02:02:46;8.90;99.90
64855;DHT22;51321;50.428;8.378;2022-09-24T02:05:17;9.10;99.90
64855;DHT22;51321;50.428;8.378;2022-09-24T02:07:45;9.10;99.90
64855;DHT22;51321;50.428;8.378;2022-09-24T02:10:13;9.10;99.90
64855;DHT22;51321;50.428;8.378;2022-09-24T02:12:37;9.10;99.90
64855;DHT22;51321;50.428;8.378;2022-09-24T02:15:06;9.00;99.90
64855;DHT22;51321;50.428;8.378;2022-09-24T02:17:33;9.00;99.90
64855;DHT22;51321;50.428;8.378;2022-09-24T02:20:00;9.10;99.90
64855;DHT22;51321;50.428;8.378;2022-09-24T02:22:25;9.10;99.90
64855;DHT22;51321;50.428;8.378;2022-09-24T02:24:49;9.10;99.90
64855;DHT22;51321;50.428;8.378;2022-09-24T02:27:11;9.00;99.90
64855;DHT22;51321;50.428;8.378;2022-09-24T02:29:34;8.90;99.90
64855;DHT22;51321;50.428;8.378;2022-09-24T02:31:56;8.80;99.90
64855;DHT22;51321;50.428;8.378;2022-09-24T02:34:33;8.70;99.90
64855;DHT22;51321;50.428;8.378;2022-09-24T02:36:59;8.70;99.90
64855;DHT22;51321;50.428;8.378;2022-09-24T02:39:26;8.80;99.90
64855;DHT22;51321;50.428;8.378;2022-09-24T02:41:51;8.80;99.90
64855;DHT22;51321;50.428;8.378;2022-09-24T02:44:13;8.80;99.90
64855;DHT22;51321;50.428;8.378;2022-09-24T02:46:35;8.70;99.90
64855;DHT22;51321;50.428;8.378;2022-09-24T02:48:58;8.70;99.90
64855;DHT22;51321;50.428;8.378;2022-09-24T02:51:20;8.70;99.90
64855;DHT22;51321;50.428;8.378;2022-09-24T02:53:42;8.70;99.90
64855;DHT22;51321;50.428;8.378;2022-09-24T02:56:06;8.60;99.90
64855;DHT22;51321;50.428;8.378;2022-09-24T02:58:29;8.60;99.90
64855;DHT22;51321;50.428;8.378;2022-09-24T03:00:52;8.60;99.90
64855;DHT22;51321;50.428;8.378;2022-09-24T03:03:14;8.50;99.90
64855;DHT22;51321;50.428;8.378;2022-09-24T03:05:36;8.40;99.90
64855;DHT22;51321;50.428;8.378;2022-09-24T03:07:58;8.40;99.90
64855;DHT22;51321;50.428;8.378;2022-09-24T03:10:21;8.30;99.90
64855;DHT22;51321;50.428;8.378;2022-09-24T03:12:45;8.40;99.90
64855;DHT22;51321;50.428;8.378;2022-09-24T03:15:07;8.40;99.90
64855;DHT22;51321;50.428;8.378;2022-09-24T03:17:30;8.40;99.90
64855;DHT22;51321;50.428;8.378;2022-09-24T03:19:52;8.40;99.90
64855;DHT22;51321;50.428;8.378;2022-09-24T03:22:14;8.40;99.90
64855;DHT22;51321;50.428;8.378;2022-09-24T03:24:37;8.30;99.90
64855;DHT22;51321;50.428;8.378;2022-09-24T03:26:59;8.30;99.90
64855;DHT22;51321;50.428;8.378;2022-09-24T03:29:23;8.40;99.90
64855;DHT22;51321;50.428;8.378;2022-09-24T03:31:59;8.20;99.90
64855;DHT22;51321;50.428;8.378;2022-09-24T03:34:21;8.30;99.90
64855;DHT22;51321;50.428;8.378;2022-09-24T03:36:43;8.10;99.90
64855;DHT22;51321;50.428;8.378;2022-09-24T03:39:05;8.00;99.90
64855;DHT22;51321;50.428;8.378;2022-09-24T03:41:27;8.00;99.90
64855;DHT22;51321;50.428;8.378;2022-09-24T03:43:54;8.10;99.90
64855;DHT22;51321;50.428;8.378;2022-09-24T03:46:17;8.10;99.90
64855;DHT22;51321;50.428;8.378;2022-09-24T03:48:40;8.20;99.90
64855;DHT22;51321;50.428;8.378;2022-09-24T03:51:03;8.20;99.90
64855;DHT22;51321;50.428;8.378;2022-09-24T03:53:25;8.10;99.90
64855;DHT22;51321;50.428;8.378;2022-09-24T03:55:52;8.10;99.90
64855;DHT22;51321;50.428;8.378;2022-09-24T03:58:15;8.10;99.90
64855;DHT22;51321;50.428;8.378;2022-09-24T04:00:37;8.10;99.90
64855;DHT22;51321;50.428;8.378;2022-09-24T04:03:00;8.10;99.90
64855;DHT22;51321;50.428;8.378;2022-09-24T04:05:22;8.10;99.90
64855;DHT22;51321;50.428;8.378;2022-09-24T04:07:45;8.10;99.90
64855;DHT22;51321;50.428;8.378;2022-09-24T04:10:07;8.10;99.90
64855;DHT22;51321;50.428;8.378;2022-09-24T04:12:30;8.00;99.90
64855;DHT22;51321;50.428;8.378;2022-09-24T04:14:53;8.00;99.90
64855;DHT22;51321;50.428;8.378;2022-09-24T04:17:15;8.00;99.90
64855;DHT22;51321;50.428;8.378;2022-09-24T04:19:39;8.00;99.90
64855;DHT22;51321;50.428;8.378;2022-09-24T04:22:01;8.10;99.90
64855;DHT22;51321;50.428;8.378;2022-09-24T04:24:23;8.20;99.90
64855;DHT22;51321;50.428;8.378;2022-09-24T04:26:46;8.20;99.90
64855;DHT22;51321;50.428;8.378;2022-09-24T04:29:07;8.30;99.90
64855;DHT22;51321;50.428;8.378;2022-09-24T04:31:30;8.40;99.90
64855;DHT22;51321;50.428;8.378;2022-09-24T04:33:53;8.30;99.90
64855;DHT22;51321;50.428;8.378;2022-09-24T04:36:16;8.30;99.90
64855;DHT22;51321;50.428;8.378;2022-09-24T04:38:38;8.40;99.90
64855;DHT22;51321;50.428;8.378;2022-09-24T04:41:05;8.30;99.90
64855;DHT22;51321;50.428;8.378;2022-09-24T04:43:27;8.20;99.90
64855;DHT22;51321;50.428;8.378;2022-09-24T04:45:49;8.10;99.90
64855;DHT22;51321;50.428;8.378;2022-09-24T04:48:13;8.10;99.90
64855;DHT22;51321;50.428;8.378;2022-09-24T04:50:36;8.10;99.90
64855;DHT22;51321;50.428;8.378;2022-09-24T04:53:00;8.10;99.90
64855;DHT22;51321;50.428;8.378;2022-09-24T04:55:23;8.20;99.90
64855;DHT22;51321;50.428;8.378;2022-09-24T04:57:45;8.10;99.90
64855;DHT22;51321;50.428;8.378;2022-09-24T05:00:08;8.10;99.90
64855;DHT22;51321;50.428;8.378;2022-09-24T05:02:34;8.00;99.90
64855;DHT22;51321;50.428;8.378;2022-09-24T05:04:56;8.10;99.90
64855;DHT22;51321;50.428;8.378;2022-09-24T05:07:18;8.20;99.90
64855;DHT22;51321;50.428;8.378;2022-09-24T05:09:41;8.10;99.90
64855;DHT22;51321;50.428;8.378;2022-09-24T05:12:04;8.10;99.90
64855;DHT22;51321;50.428;8.378;2022-09-24T05:14:26;8.00;99.90
64855;DHT22;51321;50.428;8.378;2022-09-24T05:16:48;8.00;99.90
64855;DHT22;51321;50.428;8.378;2022-09-24T05:19:11;7.90;99.90
64855;DHT22;51321;50.428;8.378;2022-09-24T05:21:33;7.90;99.90
64855;DHT22;51321;50.428;8.378;2022-09-24T05:23:56;7.80;99.90
64855;DHT22;51321;50.428;8.378;2022-09-24T05:26:19;7.80;99.90
64855;DHT22;51321;50.428;8.378;2022-09-24T05:28:59;7.70;99.90
64855;DHT22;51321;50.428;8.378;2022-09-24T05:31:21;7.70;99.90
64855;DHT22;51321;50.428;8.378;2022-09-24T05:33:43;7.90;99.90
64855;DHT22;51321;50.428;8.378;2022-09-24T05:36:06;7.90;99.90
64855;DHT22;51321;50.428;8.378;2022-09-24T05:38:28;8.10;99.90
64855;DHT22;51321;50.428;8.378;2022-09-24T05:40:52;8.20;99.90
64855;DHT22;51321;50.428;8.378;2022-09-24T05:43:16;8.20;99.90
64855;DHT22;51321;50.428;8.378;2022-09-24T05:45:39;8.20;99.90
64855;DHT22;51321;50.428;8.378;2022-09-24T05:48:02;8.10;99.90
64855;DHT22;51321;50.428;8.378;2022-09-24T05:50:24;8.10;99.90
64855;DHT22;51321;50.428;8.378;2022-09-24T05:52:47;8.00;99.90
64855;DHT22;51321;50.428;8.378;2022-09-24T05:55:09;8.10;99.90
64855;DHT22;51321;50.428;8.378;2022-09-24T05:57:32;8.00;99.90
64855;DHT22;51321;50.428;8.378;2022-09-24T05:59:55;8.10;99.90
64855;DHT22;51321;50.428;8.378;2022-09-24T06:02:17;8.30;99.90
64855;DHT22;51321;50.428;8.378;2022-09-24T06:04:39;8.30;99.90
64855;DHT22;51321;50.428;8.378;2022-09-24T06:07:01;8.40;99.90
64855;DHT22;51321;50.428;8.378;2022-09-24T06:09:23;8.50;99.90
64855;DHT22;51321;50.428;8.378;2022-09-24T06:11:45;8.60;99.90
64855;DHT22;51321;50.428;8.378;2022-09-24T06:14:10;8.60;99.90
64855;DHT22;51321;50.428;8.378;2022-09-24T06:16:34;8.70;99.90
64855;DHT22;51321;50.428;8.378;2022-09-24T06:18:57;8.70;99.90
64855;DHT22;51321;50.428;8.378;2022-09-24T06:21:19;8.80;99.90
64855;DHT22;51321;50.428;8.378;2022-09-24T06:23:41;8.80;99.90
64855;DHT22;51321;50.428;8.378;2022-09-24T06:26:06;8.80;99.90
64855;DHT22;51321;50.428;8.378;2022-09-24T06:28:29;8.90;99.90
64855;DHT22;51321;50.428;8.378;2022-09-24T06:30:51;9.10;99.90
64855;DHT22;51321;50.428;8.378;2022-09-24T06:33:15;9.10;99.90
64855;DHT22;51321;50.428;8.378;2022-09-24T06:35:38;9.20;99.90
64855;DHT22;51321;50.428;8.378;2022-09-24T06:38:00;9.30;99.90
64855;DHT22;51321;50.428;8.378;2022-09-24T06:40:22;9.30;99.90
64855;DHT22;51321;50.428;8.378;2022-09-24T06:42:50;9.40;99.90
64855;DHT22;51321;50.428;8.378;2022-09-24T06:45:12;9.50;99.90
64855;DHT22;51321;50.428;8.378;2022-09-24T06:47:34;9.50;99.90
64855;DHT22;51321;50.428;8.378;2022-09-24T06:49:58;9.60;99.90
64855;DHT22;51321;50.428;8.378;2022-09-24T06:52:20;9.70;99.90
64855;DHT22;51321;50.428;8.378;2022-09-24T06:54:43;9.80;99.90
64855;DHT22;51321;50.428;8.378;2022-09-24T06:57:05;9.80;99.90
64855;DHT22;51321;50.428;8.378;2022-09-24T06:59:28;9.80;99.90
64855;DHT22;51321;50.428;8.378;2022-09-24T07:01:50;9.90;99.90
64855;DHT22;51321;50.428;8.378;2022-09-24T07:04:12;9.80;99.90
64855;DHT22;51321;50.428;8.378;2022-09-24T07:06:36;9.90;99.90
64855;DHT22;51321;50.428;8.378;2022-09-24T07:09:12;9.90;99.90
64855;DHT22;51321;50.428;8.378;2022-09-24T07:11:34;10.10;99.90
64855;DHT22;51321;50.428;8.378;2022-09-24T07:13:57;10.40;99.90
64855;DHT22;51321;50.428;8.378;2022-09-24T07:16:19;10.50;99.90
64855;DHT22;51321;50.428;8.378;2022-09-24T07:18:41;10.50;99.90
64855;DHT22;51321;50.428;8.378;2022-09-24T07:21:03;10.50;99.90
64855;DHT22;51321;50.428;8.378;2022-09-24T07:23:28;10.50;99.90
64855;DHT22;51321;50.428;8.378;2022-09-24T07:25:54;10.70;99.90
64855;DHT22;51321;50.428;8.378;2022-09-24T07:28:17;10.90;99.90
64855;DHT22;51321;50.428;8.378;2022-09-24T07:30:40;11.00;99.90
64855;DHT22;51321;50.428;8.378;2022-09-24T07:33:02;11.00;99.90
64855;DHT22;51321;50.428;8.378;2022-09-24T07:35:24;11.10;99.90
64855;DHT22;51321;50.428;8.378;2022-09-24T07:37:47;11.20;99.90
64855;DHT22;51321;50.428;8.378;2022-09-24T07:40:11;11.20;99.90
64855;DHT22;51321;50.428;8.378;2022-09-24T07:42:33;11.10;99.90
64855;DHT22;51321;50.428;8.378;2022-09-24T07:44:56;11.00;99.90
64855;DHT22;51321;50.428;8.378;2022-09-24T07:47:20;10.90;99.90
64855;DHT22;51321;50.428;8.378;2022-09-24T07:49:42;11.00;99.90
64855;DHT22;51321;50.428;8.378;2022-09-24T07:52:05;10.90;99.90
64855;DHT22;51321;50.428;8.378;2022-09-24T07:54:27;11.00;99.90
64855;DHT22;51321;50.428;8.378;2022-09-24T07:56:52;11.00;99.90
64855;DHT22;51321;50.428;8.378;2022-09-24T07:59:14;11.20;99.90
64855;DHT22;51321;50.428;8.378;2022-09-24T08:01:36;11.30;99.90
64855;DHT22;51321;50.428;8.378;2022-09-24T08:04:00;11.30;99.90
64855;DHT22;51321;50.428;8.378;2022-09-24T08:06:24;11.40;99.90
64855;DHT22;51321;50.428;8.378;2022-09-24T08:08:48;11.50;99.90
64855;DHT22;51321;50.428;8.378;2022-09-24T08:11:12;11.80;99.90
64855;DHT22;51321;50.428;8.378;2022-09-24T08:13:36;11.90;99.90
64855;DHT22;51321;50.428;8.378;2022-09-24T08:15:58;12.00;99.90
64855;DHT22;51321;50.428;8.378;2022-09-24T08:18:20;12.00;99.90
64855;DHT22;51321;50.428;8.378;2022-09-24T08:20:42;12.10;99.90
64855;DHT22;51321;50.428;8.378;2022-09-24T08:23:06;12.20;99.90
64855;DHT22;51321;50.428;8.378;2022-09-24T08:25:29;12.20;99.90
64855;DHT22;51321;50.428;8.378;2022-09-24T08:27:52;12.40;99.90
64855;DHT22;51321;50.428;8.378;2022-09-24T08:30:15;12.70;99.90
64855;DHT22;51321;50.428;8.378;2022-09-24T08:32:38;13.00;99.90
64855;DHT22;51321;50.428;8.378;2022-09-24T08:35:00;13.20;99.90
64855;DHT22;51321;50.428;8.378;2022-09-24T08:37:22;13.30;99.90
64855;DHT22;51321;50.428;8.378;2022-09-24T08:39:45;13.30;99.90
64855;DHT22;51321;50.428;8.378;2022-09-24T08:42:12;13.30;99.90
64855;DHT22;51321;50.428;8.378;2022-09-24T08:44:38;13.40;99.90
64855;DHT22;51321;50.428;8.378;2022-09-24T08:47:35;13.40;99.90
64855;DHT22;51321;50.428;8.378;2022-09-24T08:50:02;13.50;99.90
64855;DHT22;51321;50.428;8.378;2022-09-24T08:52:39;13.60;99.90
64855;DHT22;51321;50.428;8.378;2022-09-24T08:55:06;13.80;99.90
64855;DHT22;51321;50.428;8.378;2022-09-24T08:57:34;13.90;99.90
64855;DHT22;51321;50.428;8.378;2022-09-24T08:59:57;14.00;99.90
64855;DHT22;51321;50.428;8.378;2022-09-24T09:02:32;14.10;99.90
64855;DHT22;51321;50.428;8.378;2022-09-24T09:05:03;14.20;99.90
64855;DHT22;51321;50.428;8.378;2022-09-24T09:07:30;14.40;99.90
64855;DHT22;51321;50.428;8.378;2022-09-24T09:09:56;14.50;99.90
64855;DHT22;51321;50.428;8.378;2022-09-24T09:12:22;14.70;99.90
64855;DHT22;51321;50.428;8.378;2022-09-24T09:14:51;14.80;99.90
64855;DHT22;51321;50.428;8.378;2022-09-24T09:17:36;15.10;99.90
64855;DHT22;51321;50.428;8.378;2022-09-24T09:20:05;15.20;99.90
64855;DHT22;51321;50.428;8.378;2022-09-24T09:22:33;15.30;99.90
64855;DHT22;51321;50.428;8.378;2022-09-24T09:25:01;15.40;99.90
64855;DHT22;51321;50.428;8.378;2022-09-24T09:27:25;15.50;99.90
64855;DHT22;51321;50.428;8.378;2022-09-24T09:29:52;15.60;99.90
64855;DHT22;51321;50.428;8.378;2022-09-24T09:32:25;15.60;99.90
64855;DHT22;51321;50.428;8.378;2022-09-24T09:34:59;15.70;99.90
64855;DHT22;51321;50.428;8.378;2022-09-24T09:37:26;15.80;99.90
64855;DHT22;51321;50.428;8.378;2022-09-24T09:39:56;15.90;99.90
64855;DHT22;51321;50.428;8.378;2022-09-24T09:42:26;16.20;99.90
64855;DHT22;51321;50.428;8.378;2022-09-24T09:44:49;16.40;99.90
64855;DHT22;51321;50.428;8.378;2022-09-24T09:47:14;16.30;99.90
64855;DHT22;51321;50.428;8.378;2022-09-24T09:49:38;16.20;99.90
64855;DHT22;51321;50.428;8.378;2022-09-24T09:52:08;16.30;99.90
64855;DHT22;51321;50.428;8.378;2022-09-24T09:54:36;16.40;99.90
64855;DHT22;51321;50.428;8.378;2022-09-24T09:57:01;16.50;99.90
64855;DHT22;51321;50.428;8.378;2022-09-24T09:59:25;16.40;99.90
64855;DHT22;51321;50.428;8.378;2022-09-24T10:01:49;16.50;99.90
64855;DHT22;51321;50.428;8.378;2022-09-24T10:04:27;16.50;99.20
64855;DHT22;51321;50.428;8.378;2022-09-24T10:07:04;16.60;98.90
64855;DHT22;51321;50.428;8.378;2022-09-24T10:09:27;16.90;99.30
64855;DHT22;51321;50.428;8.378;2022-09-24T10:11:49;17.00;98.50
64855;DHT22;51321;50.428;8.378;2022-09-24T10:14:12;17.20;98.30
64855;DHT22;51321;50.428;8.378;2022-09-24T10:16:38;17.40;97.80
64855;DHT22;51321;50.428;8.378;2022-09-24T10:19:00;17.40;97.30
64855;DHT22;51321;50.428;8.378;2022-09-24T10:21:28;17.30;96.60
64855;DHT22;51321;50.428;8.378;2022-09-24T10:23:57;17.40;96.60
64855;DHT22;51321;50.428;8.378;2022-09-24T10:26:20;17.50;97.00
64855;DHT22;51321;50.428;8.378;2022-09-24T10:28:53;17.60;96.90
64855;DHT22;51321;50.428;8.378;2022-09-24T10:31:35;17.70;95.80
64855;DHT22;51321;50.428;8.378;2022-09-24T10:33:59;17.60;95.80
64855;DHT22;51321;50.428;8.378;2022-09-24T10:36:24;17.50;95.30
64855;DHT22;51321;50.428;8.378;2022-09-24T10:38:46;17.60;96.20
64855;DHT22;51321;50.428;8.378;2022-09-24T10:41:26;17.60;95.40
64855;DHT22;51321;50.428;8.378;2022-09-24T10:43:50;17.50;95.40
64855;DHT22;51321;50.428;8.378;2022-09-24T10:46:25;17.40;95.50
64855;DHT22;51321;50.428;8.378;2022-09-24T10:48:59;17.70;94.90
64855;DHT22;51321;50.428;8.378;2022-09-24T10:51:31;18.00;94.50
64855;DHT22;51321;50.428;8.378;2022-09-24T10:54:19;18.50;94.90
64855;DHT22;51321;50.428;8.378;2022-09-24T10:56:49;18.70;93.40
64855;DHT22;51321;50.428;8.378;2022-09-24T10:59:42;18.80;92.30
64855;DHT22;51321;50.428;8.378;2022-09-24T11:02:40;19.10;91.90
64855;DHT22;51321;50.428;8.378;2022-09-24T11:05:10;19.40;91.30
64855;DHT22;51321;50.428;8.378;2022-09-24T11:07:55;19.80;92.00
64855;DHT22;51321;50.428;8.378;2022-09-24T11:10:26;19.90;90.00
64855;DHT22;51321;50.428;8.378;2022-09-24T11:13:06;19.70;90.70
64855;DHT22;51321;50.428;8.378;2022-09-24T11:15:49;19.40;90.60
64855;DHT22;51321;50.428;8.378;2022-09-24T11:18:25;19.40;91.50
64855;DHT22;51321;50.428;8.378;2022-09-24T11:20:57;19.50;91.10
64855;DHT22;51321;50.428;8.378;2022-09-24T11:23:38;19.40;90.60
64855;DHT22;51321;50.428;8.378;2022-09-24T11:26:12;19.40;90.40
64855;DHT22;51321;50.428;8.378;2022-09-24T11:28:51;19.30;90.00
64855;DHT22;51321;50.428;8.378;2022-09-24T11:31:23;19.30;90.90
64855;DHT22;51321;50.428;8.378;2022-09-24T11:34:06;19.20;91.30
64855;DHT22;51321;50.428;8.378;2022-09-24T11:36:49;19.20;90.80
64855;DHT22;51321;50.428;8.378;2022-09-24T11:39:28;19.20;91.30
64855;DHT22;51321;50.428;8.378;2022-09-24T11:41:59;19.10;91.00
64855;DHT22;51321;50.428;8.378;2022-09-24T11:44:45;19.40;90.90
64855;DHT22;51321;50.428;8.378;2022-09-24T11:47:18;19.60;90.40
64855;DHT22;51321;50.428;8.378;2022-09-24T11:49:59;19.80;90.80
64855;DHT22;51321;50.428;8.378;2022-09-24T11:52:30;19.80;88.30
64855;DHT22;51321;50.428;8.378;2022-09-24T11:55:00;19.70;88.40
64855;DHT22;51321;50.428;8.378;2022-09-24T11:57:27;19.60;90.00
64855;DHT22;51321;50.428;8.378;2022-09-24T11:59:57;19.80;90.70
64855;DHT22;51321;50.428;8.378;2022-09-24T12:02:29;19.90;89.20
64855;DHT22;51321;50.428;8.378;2022-09-24T12:04:58;19.80;89.70
64855;DHT22;51321;50.428;8.378;2022-09-24T12:07:27;19.60;89.70
64855;DHT22;51321;50.428;8.378;2022-09-24T12:09:52;19.70;88.50
64855;DHT22;51321;50.428;8.378;2022-09-24T12:12:20;20.00;89.20
64855;DHT22;51321;50.428;8.378;2022-09-24T12:14:48;20.30;88.10
64855;DHT22;51321;50.428;8.378;2022-09-24T12:17:17;20.30;86.70
64855;DHT22;51321;50.428;8.378;2022-09-24T12:19:47;20.00;87.10
64855;DHT22;51321;50.428;8.378;2022-09-24T12:22:11;20.00;89.60
64855;DHT22;51321;50.428;8.378;2022-09-24T12:24:36;20.20;88.40
64855;DHT22;51321;50.428;8.378;2022-09-24T12:27:03;20.20;87.20
64855;DHT22;51321;50.428;8.378;2022-09-24T12:29:35;20.10;87.90
64855;DHT22;51321;50.428;8.378;2022-09-24T12:32:21;19.90;85.40
64855;DHT22;51321;50.428;8.378;2022-09-24T12:35:09;19.70;89.30
64855;DHT22;51321;50.428;8.378;2022-09-24T12:37:36;19.70;87.90
64855;DHT22;51321;50.428;8.378;2022-09-24T12:40:05;19.70;87.10
64855;DHT22;51321;50.428;8.378;2022-09-24T12:42:39;19.60;86.50
64855;DHT22;51321;50.428;8.378;2022-09-24T12:45:05;19.50;86.50
64855;DHT22;51321;50.428;8.378;2022-09-24T12:47:44;19.30;88.10
64855;DHT22;51321;50.428;8.378;2022-09-24T12:50:20;19.30;90.10
64855;DHT22;51321;50.428;8.378;2022-09-24T12:52:42;19.40;90.30
64855;DHT22;51321;50.428;8.378;2022-09-24T12:55:18;19.40;89.80
64855;DHT22;51321;50.428;8.378;2022-09-24T12:57:48;19.40;90.70
64855;DHT22;51321;50.428;8.378;2022-09-24T13:00:33;19.40;89.50
64855;DHT22;51321;50.428;8.378;2022-09-24T13:02:59;19.30;90.50
64855;DHT22;51321;50.428;8.378;2022-09-24T13:05:27;19.20;92.60
64855;DHT22;51321;50.428;8.378;2022-09-24T13:07:58;19.10;91.90
64855;DHT22;51321;50.428;8.378;2022-09-24T13:10:22;19.10;91.90
64855;DHT22;51321;50.428;8.378;2022-09-24T13:12:45;19.10;92.00
64855;DHT22;51321;50.428;8.378;2022-09-24T13:15:27;19.10;92.00
64855;DHT22;51321;50.428;8.378;2022-09-24T13:18:02;19.30;92.30
64855;DHT22;51321;50.428;8.378;2022-09-24T13:20:25;19.30;91.60
64855;DHT22;51321;50.428;8.378;2022-09-24T13:22:54;19.10;91.40
64855;DHT22;51321;50.428;8.378;2022-09-24T13:25:20;18.80;92.30
64855;DHT22;51321;50.428;8.378;2022-09-24T13:27:55;18.60;91.80
64855;DHT22;51321;50.428;8.378;2022-09-24T13:30:25;18.60;92.30
64855;DHT22;51321;50.428;8.378;2022-09-24T13:32:55;18.80;91.30
64855;DHT22;51321;50.428;8.378;2022-09-24T13:35:23;19.00;91.60
64855;DHT22;51321;50.428;8.378;2022-09-24T13:37:49;19.20;91.10
64855;DHT22;51321;50.428;8.378;2022-09-24T13:40:16;19.40;88.90
64855;DHT22;51321;50.428;8.378;2022-09-24T13:42:45;19.60;86.90
64855;DHT22;51321;50.428;8.378;2022-09-24T13:45:12;19.50;87.40
64855;DHT22;51321;50.428;8.378;2022-09-24T13:47:40;19.50;88.70
64855;DHT22;51321;50.428;8.378;2022-09-24T13:50:11;19.40;87.20
64855;DHT22;51321;50.428;8.378;2022-09-24T13:52:39;19.40;88.50
64855;DHT22;51321;50.428;8.378;2022-09-24T13:55:10;19.40;90.10
64855;DHT22;51321;50.428;8.378;2022-09-24T13:57:42;19.30;88.10
64855;DHT22;51321;50.428;8.378;2022-09-24T14:00:13;19.20;88.80
64855;DHT22;51321;50.428;8.378;2022-09-24T14:02:37;19.10;88.00
64855;DHT22;51321;50.428;8.378;2022-09-24T14:05:01;19.10;88.20
64855;DHT22;51321;50.428;8.378;2022-09-24T14:07:23;19.10;88.30
64855;DHT22;51321;50.428;8.378;2022-09-24T14:09:46;19.00;87.50
64855;DHT22;51321;50.428;8.378;2022-09-24T14:12:13;18.90;89.10
64855;DHT22;51321;50.428;8.378;2022-09-24T14:14:35;18.90;89.70
64855;DHT22;51321;50.428;8.378;2022-09-24T14:17:07;18.80;90.30
64855;DHT22;51321;50.428;8.378;2022-09-24T14:19:30;18.80;90.20
64855;DHT22;51321;50.428;8.378;2022-09-24T14:21:56;18.60;90.90
64855;DHT22;51321;50.428;8.378;2022-09-24T14:24:21;18.50;91.80
64855;DHT22;51321;50.428;8.378;2022-09-24T14:26:50;18.50;91.50
64855;DHT22;51321;50.428;8.378;2022-09-24T14:29:17;18.50;91.40
64855;DHT22;51321;50.428;8.378;2022-09-24T14:31:46;18.40;92.30
64855;DHT22;51321;50.428;8.378;2022-09-24T14:34:24;18.30;91.90
64855;DHT22;51321;50.428;8.378;2022-09-24T14:36:47;18.30;92.40
64855;DHT22;51321;50.428;8.378;2022-09-24T14:39:10;18.30;92.50
64855;DHT22;51321;50.428;8.378;2022-09-24T14:41:34;18.30;94.00
64855;DHT22;51321;50.428;8.378;2022-09-24T14:43:59;18.20;93.90
64855;DHT22;51321;50.428;8.378;2022-09-24T14:46:25;18.20;93.90
64855;DHT22;51321;50.428;8.378;2022-09-24T14:48:50;18.30;93.90
64855;DHT22;51321;50.428;8.378;2022-09-24T14:51:24;18.40;93.90
64855;DHT22;51321;50.428;8.378;2022-09-24T14:53:57;18.40;93.60
64855;DHT22;51321;50.428;8.378;2022-09-24T14:56:25;18.40;93.90
64855;DHT22;51321;50.428;8.378;2022-09-24T14:58:48;18.40;93.70
64855;DHT22;51321;50.428;8.378;2022-09-24T15:01:13;18.40;93.60
64855;DHT22;51321;50.428;8.378;2022-09-24T15:03:39;18.40;94.00
64855;DHT22;51321;50.428;8.378;2022-09-24T15:06:13;18.40;93.80
64855;DHT22;51321;50.428;8.378;2022-09-24T15:08:37;18.40;94.60
64855;DHT22;51321;50.428;8.378;2022-09-24T15:11:01;18.40;94.10
64855;DHT22;51321;50.428;8.378;2022-09-24T15:13:25;18.40;94.30
64855;DHT22;51321;50.428;8.378;2022-09-24T15:15:47;18.50;94.40
64855;DHT22;51321;50.428;8.378;2022-09-24T15:18:12;18.40;93.60
64855;DHT22;51321;50.428;8.378;2022-09-24T15:20:36;18.40;94.00
64855;DHT22;51321;50.428;8.378;2022-09-24T15:22:58;18.30;93.50
64855;DHT22;51321;50.428;8.378;2022-09-24T15:25:21;18.30;93.50
64855;DHT22;51321;50.428;8.378;2022-09-24T15:27:44;18.20;93.70
64855;DHT22;51321;50.428;8.378;2022-09-24T15:30:10;18.20;94.40
64855;DHT22;51321;50.428;8.378;2022-09-24T15:32:34;18.20;93.90
64855;DHT22;51321;50.428;8.378;2022-09-24T15:34:58;18.10;93.80